Time;durP1;ratioP1;P1;durP2;ratioP2;P2;SDS_P1;SDS_P2;PMS_P1;PMS_P2;Temp;Humidity;BMP_temperature;BMP_pressure;BME280_temperature;BME280_humidity;BME280_pressure;Samples;Min_cycle;Max_cycle;Signal;HPM_P1;HPM_P2
2023/10/17 00:01:11;;;;;;;8.15;5.88;;;;;;;6.58;100.00;101858.66;5007612;28;20422;-67
2023/10/17 00:03:40;;;;;;;8.50;5.88;;;;;;;6.55;100.00;101861.06;5007715;28;20040;-67
2023/10/17 00:06:06;;;;;;;6.97;5.53;;;;;;;6.54;100.00;101859.25;5007520;28;20022;-67
2023/10/17 00:08:35;;;;;;;7.30;5.10;;;;;;;6.52;100.00;101860.81;5005587;28;20104;-67
2023/10/17 00:11:11;;;;;;;7.43;5.65;;;;;;;6.51;100.00;101859.06;5007550;28;20036;-66
2023/10/17 00:13:44;;;;;;;9.25;6.07;;;;;;;6.50;100.00;101858.16;5009947;28;20068;-66
2023/10/17 00:16:12;;;;;;;7.82;6.00;;;;;;;6.48;100.00;101849.44;5009779;28;20026;-67
2023/10/17 00:18:38;;;;;;;9.32;6.45;;;;;;;6.48;100.00;101850.34;5010154;28;20026;-67
2023/10/17 00:21:10;;;;;;;8.65;5.63;;;;;;;6.48;100.00;101852.00;5010116;28;20457;-66
2023/10/17 00:23:39;;;;;;;8.10;6.00;;;;;;;6.48;100.00;101855.47;5010316;28;20087;-66
2023/10/17 00:26:04;;;;;;;8.80;6.30;;;;;;;6.49;100.00;101844.38;5010534;28;20104;-66
2023/10/17 00:28:30;;;;;;;6.32;5.68;;;;;;;6.51;100.00;101843.59;5010643;28;20032;-66
2023/10/17 00:30:55;;;;;;;6.82;6.13;;;;;;;6.51;100.00;101847.09;5010482;28;20026;-67
2023/10/17 00:33:23;;;;;;;7.85;6.75;;;;;;;6.53;100.00;101848.03;5009870;28;20022;-68
2023/10/17 00:35:49;;;;;;;7.03;5.78;;;;;;;6.54;100.00;101839.53;5010269;28;20070;-66
2023/10/17 00:38:17;;;;;;;10.63;6.95;;;;;;;6.54;100.00;101829.25;5010108;28;20096;-66
2023/10/17 00:40:51;;;;;;;10.80;7.13;;;;;;;6.53;100.00;101830.00;5009729;28;20046;-67
2023/10/17 00:43:17;;;;;;;9.20;7.15;;;;;;;6.54;100.00;101828.34;5009570;28;20018;-66
2023/10/17 00:45:45;;;;;;;9.50;7.22;;;;;;;6.54;100.00;101823.19;5010408;28;20109;-66
2023/10/17 00:48:18;;;;;;;9.23;7.43;;;;;;;6.54;100.00;101828.34;5009411;28;20439;-67
2023/10/17 00:50:50;;;;;;;9.48;7.97;;;;;;;6.53;100.00;101831.72;5010000;28;20060;-66
2023/10/17 00:53:16;;;;;;;10.85;7.45;;;;;;;6.54;100.00;101828.34;5009586;28;20038;-66
2023/10/17 00:55:50;;;;;;;9.27;7.68;;;;;;;6.55;100.00;101831.00;5010561;28;20444;-67
2023/10/17 00:58:18;;;;;;;11.77;7.65;;;;;;;6.54;100.00;101825.75;4996632;28;20026;-65
2023/10/17 01:00:53;;;;;;;8.35;7.22;;;;;;;6.55;100.00;101830.13;5009510;28;20036;-66
2023/10/17 01:03:18;;;;;;;8.10;7.38;;;;;;;6.55;100.00;101825.00;5009765;28;20100;-66
2023/10/17 01:08:48;;;;;;;8.65;6.88;;;;;;;6.56;100.00;101821.59;5010056;28;20532;-66
2023/10/17 01:11:20;;;;;;;8.02;7.07;;;;;;;6.57;100.00;101828.53;4996924;28;20033;-67
2023/10/17 01:13:47;;;;;;;8.68;7.40;;;;;;;6.58;100.00;101836.34;5009277;28;20478;-66
2023/10/17 01:16:15;;;;;;;7.47;6.68;;;;;;;6.59;100.00;101834.69;5009334;28;20062;-68
2023/10/17 01:18:44;;;;;;;8.57;7.13;;;;;;;6.59;100.00;101832.09;5009542;28;20462;-66
2023/10/17 01:21:11;;;;;;;11.05;6.65;;;;;;;6.59;100.00;101832.09;5009374;28;20380;-68
2023/10/17 01:23:38;;;;;;;7.25;6.53;;;;;;;6.57;100.00;101836.25;5009519;28;20034;-64
2023/10/17 01:26:08;;;;;;;8.18;7.38;;;;;;;6.58;100.00;101838.06;5010330;28;20432;-66
2023/10/17 01:28:34;;;;;;;9.52;6.68;;;;;;;6.56;100.00;101826.75;5009906;28;20026;-66
2023/10/17 01:31:01;;;;;;;7.65;6.82;;;;;;;6.56;100.00;101824.19;5009638;28;20562;-67
2023/10/17 01:33:29;;;;;;;9.52;5.88;;;;;;;6.55;100.00;101817.25;5009652;28;20406;-66
2023/10/17 01:35:57;;;;;;;9.98;7.10;;;;;;;6.54;100.00;101810.31;5009247;28;20032;-66
2023/10/17 01:38:26;;;;;;;8.23;6.65;;;;;;;6.52;100.00;101811.91;5009587;28;20076;-67
2023/10/17 01:40:53;;;;;;;9.38;6.32;;;;;;;6.51;100.00;101812.69;5010111;28;20147;-66
2023/10/17 01:43:18;;;;;;;7.30;6.60;;;;;;;6.52;100.00;101819.63;5019217;28;20029;-67
2023/10/17 01:45:48;;;;;;;9.48;7.00;;;;;;;6.51;100.00;101812.69;5016016;28;20080;-67
2023/10/17 01:48:13;;;;;;;8.80;7.25;;;;;;;6.49;100.00;101810.91;5001079;28;20016;-67
2023/10/17 01:50:39;;;;;;;9.52;6.90;;;;;;;6.49;100.00;101808.31;5012555;28;20025;-67
2023/10/17 01:53:12;;;;;;;8.15;6.47;;;;;;;6.47;100.00;101812.50;5009452;28;20045;-67
2023/10/17 01:55:42;;;;;;;9.25;6.95;;;;;;;6.45;100.00;101803.78;5008525;28;20033;-66
2023/10/17 01:58:07;;;;;;;8.88;6.82;;;;;;;6.46;100.00;101797.84;5009498;28;20030;-67
2023/10/17 02:00:39;;;;;;;14.15;7.05;;;;;;;6.45;100.00;101780.63;5018982;28;20033;-66
2023/10/17 02:03:05;;;;;;;;;;;;;;;6.41;100.00;101778.63;5010121;28;20026;-66
2023/10/17 02:05:31;;;;;;;10.63;6.88;;;;;;;6.40;100.00;101774.28;5009257;28;20431;-68
2023/10/17 02:07:56;;;;;;;8.45;6.55;;;;;;;6.37;100.00;101779.22;5009063;28;20014;-67
2023/10/17 02:10:24;;;;;;;9.13;6.75;;;;;;;6.36;100.00;101777.44;5008789;28;20190;-67
2023/10/17 02:12:50;;;;;;;10.95;7.30;;;;;;;6.35;100.00;101768.81;5009235;28;20422;-66
2023/10/17 02:15:19;;;;;;;8.68;6.13;;;;;;;6.34;100.00;101761.91;5008911;28;20372;-67
2023/10/17 02:17:47;;;;;;;9.57;6.60;;;;;;;6.32;100.00;101778.94;5020513;28;20018;-66
2023/10/17 02:22:57;;;;;;;11.63;7.25;;;;;;;6.31;100.00;101768.53;5009262;28;20029;-67
2023/10/17 02:25:34;;;;;;;11.00;7.47;;;;;;;6.31;100.00;101745.38;5008405;28;20045;-66
2023/10/17 02:28:00;;;;;;;9.93;7.18;;;;;;;6.31;100.00;101750.50;5008321;28;20026;-67
2023/10/17 02:30:25;;;;;;;8.85;7.18;;;;;;;6.30;100.00;101756.44;5008818;28;20117;-67
2023/10/17 02:32:56;;;;;;;7.93;7.13;;;;;;;6.31;100.00;101763.38;5008391;28;20398;-67
2023/10/17 02:35:36;;;;;;;12.10;6.90;;;;;;;6.29;100.00;101757.25;5007759;28;20051;-66
2023/10/17 02:38:03;;;;;;;10.18;7.57;;;;;;;6.29;100.00;101771.00;5008500;28;20037;-67
2023/10/17 02:40:34;;;;;;;10.00;8.38;;;;;;;6.29;100.00;101771.00;5008253;28;20032;-65
2023/10/17 02:42:59;;;;;;;8.20;7.28;;;;;;;6.29;100.00;101770.13;5009071;28;20108;-67
2023/10/17 02:45:24;;;;;;;10.38;7.68;;;;;;;6.30;100.00;101777.03;5008076;28;20148;-67
2023/10/17 02:47:54;;;;;;;10.52;7.90;;;;;;;6.30;100.00;101777.94;5008287;28;20022;-67
2023/10/17 02:52:55;;;;;;;13.68;8.23;;;;;;;6.31;100.00;101771.09;5013976;28;20061;-67
2023/10/17 02:55:23;;;;;;;11.48;8.00;;;;;;;6.33;100.00;101772.09;5008250;28;20497;-66
2023/10/17 02:57:52;;;;;;;12.40;8.20;;;;;;;6.32;100.00;101763.47;5008240;28;20033;-65
2023/10/17 03:00:22;;;;;;;11.48;8.02;;;;;;;6.32;100.00;101760.00;4995442;28;20030;-67
2023/10/17 03:02:58;;;;;;;9.27;8.25;;;;;;;6.30;100.00;101756.44;5007300;28;20018;-66
2023/10/17 03:05:24;;;;;;;8.88;7.82;;;;;;;6.29;100.00;101764.97;5007709;28;20450;-66
2023/10/17 03:07:50;;;;;;;10.82;8.00;;;;;;;6.27;100.00;101767.44;5007013;28;20389;-66
2023/10/17 03:10:43;;;;;;;8.07;7.25;;;;;;;6.27;100.00;101762.28;5007560;28;20025;-66
2023/10/17 03:15:46;;;;;;;12.88;8.70;;;;;;;6.27;100.00;101756.25;5009795;28;20105;-67
2023/10/17 03:18:15;;;;;;;11.30;9.07;;;;;;;6.26;100.00;101764.78;5017487;28;20065;-65
2023/10/17 03:20:41;;;;;;;10.68;9.00;;;;;;;6.24;100.00;101757.81;5006305;28;20061;-67
2023/10/17 03:23:10;;;;;;;10.88;9.77;;;;;;;6.24;100.00;101762.97;5007580;28;20469;-66
2023/10/17 03:25:39;;;;;;;12.75;9.05;;;;;;;6.24;100.00;101760.41;5007039;28;20026;-66
2023/10/17 03:28:08;;;;;;;11.50;8.95;;;;;;;6.23;100.00;101757.72;5007128;28;20028;-66
2023/10/17 03:30:35;;;;;;;10.65;9.55;;;;;;;6.20;100.00;101766.16;5006492;28;20037;-66
2023/10/17 03:35:26;;;;;;;12.07;9.52;;;;;;;6.21;100.00;101761.88;5006689;28;20473;-66
2023/10/17 03:37:54;;;;;;;15.82;10.30;;;;;;;6.21;100.00;101772.19;5006774;28;20033;-67
2023/10/17 03:41:24;;;;;;;12.45;10.20;;;;;;;6.20;100.00;101772.97;5007111;28;20057;-67
2023/10/17 03:43:15;;;;;;;14.23;10.82;;;;;;;6.20;100.00;101766.16;5009651;28;20056;-67
2023/10/17 03:45:47;;;;;;;14.43;10.05;;;;;;;6.22;100.00;101766.25;5009596;28;20034;-67
2023/10/17 03:48:20;;;;;;;12.77;10.82;;;;;;;6.19;100.00;101768.63;5010816;28;20025;-67
2023/10/17 03:53:29;;;;;;;14.02;11.23;;;;;;;6.17;100.00;101771.09;5013495;28;20034;-67
2023/10/17 03:56:00;;;;;;;13.80;12.20;;;;;;;6.15;100.00;101772.69;5011301;28;20029;-67
2023/10/17 04:00:52;;;;;;;13.05;10.57;;;;;;;6.13;100.00;101776.84;5011485;28;20413;-67
2023/10/17 04:03:21;;;;;;;12.48;10.82;;;;;;;6.12;100.00;101773.38;5011011;28;20482;-67
2023/10/17 04:06:01;;;;;;;12.38;10.93;;;;;;;6.10;100.00;101774.06;5011005;28;20032;-67
2023/10/17 04:08:31;;;;;;;12.40;10.90;;;;;;;6.09;100.00;101774.84;5011362;28;20021;-67
2023/10/17 04:13:40;;;;;;;19.30;11.88;;;;;;;6.07;100.00;101773.84;5010808;28;20060;-67
2023/10/17 04:16:22;;;;;;;14.93;12.27;;;;;;;6.06;100.00;101778.09;5010578;28;20029;-67
2023/10/17 04:19:07;;;;;;;13.52;11.65;;;;;;;6.06;100.00;101784.97;5010802;28;20033;-67
2023/10/17 04:21:37;;;;;;;13.52;12.10;;;;;;;6.05;100.00;101775.41;5011369;28;20040;-67
2023/10/17 04:24:06;;;;;;;15.75;12.75;;;;;;;6.06;100.00;101782.38;5010935;28;20642;-68
2023/10/17 04:26:35;;;;;;;17.25;12.50;;;;;;;6.07;100.00;101779.00;5011061;28;20034;-66
2023/10/17 04:29:17;;;;;;;14.68;11.88;;;;;;;6.07;100.00;101771.28;5009842;28;20026;-67
2023/10/17 04:31:43;;;;;;;14.38;12.73;;;;;;;6.08;100.00;101775.66;5010211;28;20026;-67
2023/10/17 04:34:14;;;;;;;15.65;12.77;;;;;;;6.09;100.00;101777.44;5010884;28;20037;-67
2023/10/17 04:36:41;;;;;;;16.70;12.43;;;;;;;6.08;100.00;101778.22;5009907;28;20032;-67
2023/10/17 04:49:53;;;;;;;16.60;12.30;;;;;;;6.10;100.00;101784.34;5010400;28;20512;-66
2023/10/17 04:52:21;;;;;;;15.65;12.60;;;;;;;6.08;100.00;101778.22;5018211;28;20808;-66
2023/10/17 04:54:53;;;;;;;14.13;12.45;;;;;;;6.07;100.00;101777.34;5010295;28;20026;-67
2023/10/17 04:57:19;;;;;;;16.25;13.00;;;;;;;6.08;100.00;101773.09;5009132;28;20029;-66
2023/10/17 05:07:28;;;;;;;17.10;13.55;;;;;;;6.08;100.00;101771.38;5010253;28;20486;-67
2023/10/17 06:18:27;;;;;;;20.13;15.32;;;;;;;6.09;100.00;101741.41;5013936;28;20488;-66
2023/10/17 06:34:20;;;;;;;18.45;16.52;;;;;;;6.11;100.00;101760.41;5007164;28;20034;-66
2023/10/17 06:36:50;;;;;;;17.88;15.88;;;;;;;6.08;100.00;101755.06;5008341;28;20014;-67
2023/10/17 06:39:17;;;;;;;18.23;16.42;;;;;;;6.10;100.00;101758.59;5006945;28;20105;-67
2023/10/17 06:41:47;;;;;;;20.15;16.98;;;;;;;6.10;100.00;101756.94;5006364;28;20050;-66
2023/10/17 06:44:21;;;;;;;19.27;17.08;;;;;;;6.12;100.00;101757.03;5006153;28;20563;-66
2023/10/17 06:54:41;;;;;;;16.85;14.95;;;;;;;6.17;100.00;101773.66;5007226;28;20045;-66
2023/10/17 06:57:24;;;;;;;18.48;16.00;;;;;;;6.17;100.00;101772.78;5007889;28;20433;-67
2023/10/17 06:59:51;;;;;;;18.38;15.75;;;;;;;6.18;100.00;101775.47;5007012;28;20037;-66
2023/10/17 07:02:28;;;;;;;17.58;15.27;;;;;;;6.21;100.00;101778.22;5006174;28;20360;-67
2023/10/17 07:04:59;;;;;;;17.98;15.93;;;;;;;6.23;100.00;101789.53;5001708;28;20492;-67
2023/10/17 07:07:31;;;;;;;18.25;15.77;;;;;;;6.21;100.00;101783.38;5013118;28;20060;-65
2023/10/17 07:12:41;;;;;;;19.20;15.23;;;;;;;6.23;100.00;101768.94;5004237;28;20068;-66
2023/10/17 07:15:41;;;;;;;18.58;15.65;;;;;;;6.24;100.00;101769.81;5016457;28;20033;-67
2023/10/17 07:23:32;;;;;;;19.17;15.00;;;;;;;6.30;100.00;101764.16;5012160;28;20299;-66
2023/10/17 07:25:57;;;;;;;18.20;14.52;;;;;;;6.32;100.00;101760.00;4995235;28;20378;-67
2023/10/17 07:28:22;;;;;;;16.63;14.07;;;;;;;6.36;100.00;101759.41;5005372;28;20034;-66
2023/10/17 07:30:57;;;;;;;16.42;14.02;;;;;;;6.37;100.00;101753.47;5007688;28;20033;-65
2023/10/17 07:33:24;;;;;;;15.55;13.02;;;;;;;6.41;100.00;101755.44;5004913;28;20493;-67
2023/10/17 07:35:56;;;;;;;15.77;14.07;;;;;;;6.46;100.00;101759.22;5005838;28;20026;-68
2023/10/17 07:38:27;;;;;;;15.95;14.25;;;;;;;6.44;100.00;101767.66;5005207;28;20069;-67
2023/10/17 07:40:58;;;;;;;16.35;14.63;;;;;;;6.50;100.00;101770.59;5004947;28;20057;-67
2023/10/17 07:43:24;;;;;;;15.27;13.68;;;;;;;6.54;100.00;101771.69;5006163;28;20025;-67
2023/10/17 07:45:55;;;;;;;14.57;13.00;;;;;;;6.56;100.00;101775.25;5004874;28;20529;-67
2023/10/17 07:48:25;;;;;;;17.52;12.52;;;;;;;6.58;100.00;101769.38;5003873;28;20025;-66
2023/10/17 07:50:51;;;;;;;14.45;12.88;;;;;;;6.60;100.00;101774.66;5004406;28;20048;-67
2023/10/17 07:53:21;;;;;;;13.80;12.27;;;;;;;6.62;100.00;101775.63;5004031;28;20750;-67
2023/10/17 07:56:04;;;;;;;14.05;12.65;;;;;;;6.64;100.00;101771.47;5004352;28;20034;-67
2023/10/17 07:58:41;;;;;;;14.50;12.88;;;;;;;6.64;100.00;101771.47;5003663;28;20022;-67
2023/10/17 08:01:07;;;;;;;13.13;11.27;;;;;;;6.64;100.00;101763.72;5004720;28;20113;-68
2023/10/17 08:03:40;;;;;;;13.27;11.55;;;;;;;6.64;100.00;101763.72;5016573;28;20049;-67
2023/10/17 08:06:07;;;;;;;15.73;12.10;;;;;;;6.64;100.00;101756.00;5016664;28;20043;-67
2023/10/17 08:08:34;;;;;;;14.68;11.73;;;;;;;6.66;100.00;101758.69;5004817;28;20022;-66
2023/10/17 08:11:03;;;;;;;14.93;12.82;;;;;;;6.82;100.00;101760.53;5004622;28;20061;-67
2023/10/17 08:13:28;;;;;;;14.45;11.27;;;;;;;7.12;100.00;101757.19;5008976;28;20534;-65
2023/10/17 08:16:05;;;;;;;11.85;10.55;;;;;;;7.45;100.00;101763.47;5019549;28;20032;-67
2023/10/17 08:18:39;;;;;;;11.98;10.15;;;;;;;7.69;100.00;101758.00;5013393;28;20120;-67
2023/10/17 08:23:43;;;;;;;10.77;9.65;;;;;;;8.17;100.00;101770.16;5007630;28;20437;-67
2023/10/17 08:26:10;;;;;;;12.02;10.07;;;;;;;8.28;100.00;101770.78;5025752;28;20029;-67
2023/10/17 08:31:27;;;;;;;11.00;9.73;;;;;;;8.36;100.00;101758.31;5004769;28;20067;-67
2023/10/17 08:36:53;;;;;;;10.40;9.10;;;;;;;8.49;100.00;101765.03;5020800;28;20069;-67
2023/10/17 08:42:00;;;;;;;10.40;9.15;;;;;;;8.92;100.00;101757.88;5011579;28;20311;-67
2023/10/17 08:44:29;;;;;;;11.68;9.13;;;;;;;9.04;100.00;101749.88;5027533;28;20108;-67
2023/10/17 08:46:55;;;;;;;9.98;8.82;;;;;;;9.47;100.00;101755.50;5009461;28;20426;-68
2023/10/17 08:49:21;;;;;;;8.75;7.88;;;;;;;9.87;100.00;101750.56;5010393;28;20114;-67
2023/10/17 08:51:50;;;;;;;8.02;7.32;;;;;;;10.13;100.00;101761.34;5009681;28;20424;-67
2023/10/17 08:54:19;;;;;;;8.25;6.80;;;;;;;10.38;100.00;101765.09;5010526;28;20025;-66
2023/10/17 08:56:47;;;;;;;10.30;6.80;;;;;;;10.38;100.00;101762.50;5014414;28;20458;-66
2023/10/17 08:59:13;;;;;;;9.65;6.88;;;;;;;10.62;100.00;101764.50;5010225;28;20076;-67
2023/10/17 09:01:59;;;;;;;8.48;6.57;;;;;;;10.53;100.00;101764.97;5009737;28;20030;-67
2023/10/17 09:04:26;;;;;;;7.55;6.78;;;;;;;10.52;100.00;101769.25;5009950;28;20022;-67
2023/10/17 09:06:59;;;;;;;8.18;6.38;;;;;;;10.17;100.00;101776.19;5011502;28;20026;-67
2023/10/17 09:09:28;;;;;;;7.15;6.45;;;;;;;10.16;100.00;101764.06;5010543;28;20390;-67
2023/10/17 09:12:19;;;;;;;8.07;6.85;;;;;;;10.04;100.00;101765.22;5010310;28;20413;-67
2023/10/17 09:14:48;;;;;;;7.28;6.57;;;;;;;9.93;100.00;101761.25;5011343;28;20053;-66
2023/10/17 09:17:17;;;;;;;7.13;6.43;;;;;;;9.84;100.00;101762.53;5009323;28;20084;-66
2023/10/17 09:19:50;;;;;;;7.65;6.13;;;;;;;9.68;100.00;101760.00;5010549;28;20064;-66
2023/10/17 09:22:17;;;;;;;7.25;6.57;;;;;;;9.61;100.00;101761.38;5010155;28;20544;-67
2023/10/17 09:24:49;;;;;;;7.50;6.75;;;;;;;9.59;100.00;101760.41;5010312;28;20034;-66
2023/10/17 09:27:15;;;;;;;7.28;6.53;;;;;;;9.54;100.00;101762.78;5009928;28;20068;-67
2023/10/17 09:29:49;;;;;;;8.25;6.45;;;;;;;9.52;100.00;101761.81;5010280;28;20394;-66
2023/10/17 09:32:40;;;;;;;6.80;6.00;;;;;;;9.47;100.00;101760.69;5014543;28;20064;-66
2023/10/17 09:35:16;;;;;;;6.72;6.10;;;;;;;9.43;100.00;101762.22;5016505;28;20156;-66
2023/10/17 09:37:46;;;;;;;8.20;5.65;;;;;;;9.39;100.00;101762.00;5019727;28;20049;-64
2023/10/17 09:40:14;;;;;;;8.60;6.43;;;;;;;9.39;100.00;101767.19;5009541;28;20036;-66
2023/10/17 09:42:44;;;;;;;10.52;6.35;;;;;;;9.31;100.00;101759.91;5009227;28;20582;-66
2023/10/17 09:45:10;;;;;;;8.10;5.43;;;;;;;9.28;100.00;101754.56;5014580;28;20443;-67
2023/10/17 09:47:41;;;;;;;8.18;5.25;;;;;;;9.26;100.00;101756.19;5029274;28;20022;-67
2023/10/17 09:50:10;;;;;;;6.25;5.65;;;;;;;9.23;100.00;101745.66;5021670;28;20018;-67
2023/10/17 09:52:37;;;;;;;6.88;5.55;;;;;;;9.20;100.00;101753.28;5009931;28;20037;-67
2023/10/17 09:55:06;;;;;;;5.25;4.75;;;;;;;9.20;100.00;101755.84;5008587;28;20026;-67
2023/10/17 09:57:35;;;;;;;6.22;4.72;;;;;;;9.20;100.00;101766.19;5009631;28;20075;-67
2023/10/17 10:00:14;;;;;;;5.57;4.35;;;;;;;9.22;100.00;101767.19;4996395;28;20032;-67
2023/10/17 10:02:41;;;;;;;6.55;4.13;;;;;;;9.23;100.00;101762.06;5008980;28;20113;-67
2023/10/17 10:05:24;;;;;;;4.95;4.38;;;;;;;9.26;100.00;101758.78;5007655;28;20030;-66
2023/10/17 10:07:50;;;;;;;5.50;4.45;;;;;;;9.30;100.00;101763.28;5010690;28;20104;-66
2023/10/17 10:10:41;;;;;;;5.95;4.72;;;;;;;9.34;100.00;101770.41;5009231;28;20410;-67
2023/10/17 10:13:08;;;;;;;5.03;3.63;;;;;;;9.36;100.00;101768.78;5008360;28;20386;-66
2023/10/17 10:15:52;;;;;;;6.40;4.22;;;;;;;9.40;100.00;101754.31;5008779;28;20040;-67
2023/10/17 10:18:40;;;;;;;7.72;4.43;;;;;;;9.41;100.00;101761.25;5008848;28;20098;-67
2023/10/17 10:21:07;;;;;;;5.80;4.03;;;;;;;9.43;100.00;101753.56;5008911;28;20024;-67
2023/10/17 10:23:36;;;;;;;4.07;3.60;;;;;;;9.45;100.00;101754.53;5008917;28;20088;-67
2023/10/17 10:26:19;;;;;;;4.65;4.10;;;;;;;9.47;100.00;101747.75;5009294;28;20481;-67
2023/10/17 10:28:47;;;;;;;4.70;4.15;;;;;;;9.53;100.00;101749.78;5008888;28;20103;-67
2023/10/17 10:31:21;;;;;;;6.93;4.28;;;;;;;9.57;100.00;101747.41;5008905;28;20025;-67
2023/10/17 10:33:50;;;;;;;6.72;4.63;;;;;;;9.60;100.00;101739.81;5008558;28;20069;-68
2023/10/17 10:36:19;;;;;;;4.53;4.13;;;;;;;9.65;100.00;101741.72;5008598;28;20038;-67
2023/10/17 10:38:45;;;;;;;4.60;4.18;;;;;;;9.66;100.00;101740.94;5008782;28;20026;-67
2023/10/17 10:41:15;;;;;;;4.50;3.67;;;;;;;9.68;100.00;101739.28;5007942;28;20050;-67
2023/10/17 10:43:44;;;;;;;5.53;3.75;;;;;;;9.72;100.00;101736.94;5002603;28;20350;-67
2023/10/17 10:46:10;;;;;;;4.18;3.50;;;;;;;9.76;100.00;101731.91;4999402;28;20040;-66
2023/10/17 10:48:38;;;;;;;3.95;3.58;;;;;;;9.82;100.00;101737.41;5009883;28;20045;-67
2023/10/17 10:51:04;;;;;;;4.55;4.00;;;;;;;9.89;100.00;101728.25;5007645;28;20030;-67
2023/10/17 10:53:31;;;;;;;3.65;3.30;;;;;;;9.94;100.00;101730.25;5008309;28;20033;-67
2023/10/17 10:56:09;;;;;;;5.20;4.13;;;;;;;10.01;100.00;101718.47;5006437;28;20037;-67
2023/10/17 10:58:47;;;;;;;5.22;3.80;;;;;;;10.09;100.00;101711.09;5008168;28;20022;-66
2023/10/17 11:01:14;;;;;;;3.92;3.50;;;;;;;10.17;100.00;101707.16;5008351;28;20429;-66
2023/10/17 11:03:44;;;;;;;3.65;3.35;;;;;;;10.28;100.00;101710.25;5006704;28;20049;-67
2023/10/17 11:06:09;;;;;;;3.50;3.20;;;;;;;10.37;100.00;101707.22;5004064;28;20516;-67
2023/10/17 11:08:43;;;;;;;3.35;2.70;;;;;;;10.47;100.00;101703.31;4998543;28;20112;-66
2023/10/17 11:11:10;;;;;;;4.55;2.97;;;;;;;10.62;100.00;101698.00;5002127;28;20037;-66
2023/10/17 11:13:40;;;;;;;4.85;2.80;;;;;;;10.72;100.00;101694.09;5005335;28;20061;-66
2023/10/17 11:16:06;;;;;;;6.47;3.22;;;;;;;10.79;100.00;101688.38;5015721;28;20134;-67
2023/10/17 11:18:35;;;;;;;4.10;3.05;;;;;;;10.89;100.00;101687.09;5009383;28;20116;-67
2023/10/17 11:21:02;;;;;;;3.85;3.10;;;;;;;11.01;100.00;101685.88;5006388;28;20034;-67
2023/10/17 11:23:29;;;;;;;4.60;3.30;;;;;;;11.12;100.00;101683.72;5001580;28;20477;-67
2023/10/17 11:25:59;;;;;;;2.90;2.70;;;;;;;11.25;100.00;101683.44;5003931;28;20014;-67
2023/10/17 11:28:27;;;;;;;4.43;2.72;;;;;;;11.40;100.00;101690.13;5006847;28;20455;-66
2023/10/17 11:30:53;;;;;;;3.10;2.80;;;;;;;11.53;100.00;101682.00;5005934;28;20025;-66
2023/10/17 11:33:24;;;;;;;3.25;2.60;;;;;;;11.68;98.50;101670.47;4995395;28;20030;-66
2023/10/17 11:35:51;;;;;;;2.78;2.58;;;;;;;11.71;96.68;101667.13;5004914;28;20494;-66
2023/10/17 11:38:37;;;;;;;5.45;2.97;;;;;;;11.85;96.36;101668.59;5017929;28;20060;-66
2023/10/17 11:41:04;;;;;;;4.05;3.08;;;;;;;11.82;92.03;101657.19;4994683;28;20045;-67
2023/10/17 11:43:34;;;;;;;3.60;2.30;;;;;;;11.86;92.40;101669.44;5007223;28;20030;-67
2023/10/17 11:46:00;;;;;;;4.07;2.80;;;;;;;11.93;91.40;101663.66;4994755;28;20027;-67
2023/10/17 11:48:31;;;;;;;4.45;2.75;;;;;;;12.05;93.43;101663.28;4999812;28;20021;-67
2023/10/17 11:51:13;;;;;;;3.42;2.55;;;;;;;12.09;90.77;101659.06;5003580;28;20036;-66
2023/10/17 11:54:06;;;;;;;3.75;3.05;;;;;;;12.22;91.97;101657.88;5007682;28;20080;-67
2023/10/17 11:56:32;;;;;;;3.33;3.00;;;;;;;12.16;90.43;101648.13;4993505;28;20486;-67
2023/10/17 11:59:01;;;;;;;2.85;2.60;;;;;;;12.24;91.40;101654.53;5007387;28;20026;-67
2023/10/17 12:01:26;;;;;;;2.92;2.50;;;;;;;12.26;89.49;101649.38;5003102;28;20065;-67
2023/10/17 12:03:53;;;;;;;3.58;2.70;;;;;;;12.28;90.54;101658.13;4994135;28;20415;-66
2023/10/17 12:06:21;;;;;;;3.70;2.35;;;;;;;12.35;90.42;101674.81;5002977;28;20478;-67
2023/10/17 12:08:47;;;;;;;6.07;3.20;;;;;;;12.28;88.93;101663.31;5010181;28;20037;-67
2023/10/17 12:11:12;;;;;;;4.93;2.13;;;;;;;12.40;91.56;101668.09;5008717;28;20026;-67
2023/10/17 12:13:37;;;;;;;3.00;2.63;;;;;;;12.45;91.70;101665.66;5011349;28;20030;-66
2023/10/17 12:16:08;;;;;;;3.78;3.10;;;;;;;12.41;89.07;101664.66;5011618;28;20088;-67
2023/10/17 12:18:35;;;;;;;4.13;2.45;;;;;;;12.32;87.06;101656.53;5011196;28;20030;-67
2023/10/17 12:21:01;;;;;;;3.55;2.53;;;;;;;12.30;87.06;101645.19;5010923;28;20390;-66
2023/10/17 12:23:29;;;;;;;3.22;2.47;;;;;;;12.27;87.99;101634.69;5008615;28;20022;-66
2023/10/17 12:25:56;;;;;;;4.65;2.45;;;;;;;12.20;90.26;101629.25;5001500;28;20030;-67
2023/10/17 12:28:21;;;;;;;2.65;2.38;;;;;;;12.21;91.72;101623.22;5010843;28;20531;-66
2023/10/17 12:30:46;;;;;;;2.97;2.67;;;;;;;12.19;89.25;101617.09;5011310;28;20029;-66
2023/10/17 12:33:12;;;;;;;2.55;2.10;;;;;;;12.18;88.71;101615.28;5011091;28;20021;-66
2023/10/17 12:35:37;;;;;;;3.78;2.85;;;;;;;12.16;86.74;101611.75;5010279;28;20029;-66
2023/10/17 12:38:20;;;;;;;2.80;2.50;;;;;;;12.15;86.63;101606.50;5006644;28;20033;-66
2023/10/17 12:40:46;;;;;;;3.90;2.10;;;;;;;12.11;86.24;101605.50;5006560;28;20384;-66
2023/10/17 12:43:11;;;;;;;3.72;2.28;;;;;;;12.12;87.81;101586.50;5003793;28;20080;-67
2023/10/17 12:45:38;;;;;;;3.00;2.45;;;;;;;12.10;85.29;101583.84;5008212;28;20052;-67
2023/10/17 12:48:05;;;;;;;2.97;2.47;;;;;;;12.08;86.74;101572.47;5008182;28;20025;-66
2023/10/17 12:50:33;;;;;;;2.67;2.25;;;;;;;12.09;87.27;101568.16;5007753;28;20064;-66
2023/10/17 12:52:58;;;;;;;2.58;2.33;;;;;;;12.07;88.00;101562.03;5008773;28;20022;-66
2023/10/17 12:55:24;;;;;;;3.75;2.40;;;;;;;12.03;88.17;101554.94;5021962;28;20021;-67
2023/10/17 12:57:51;;;;;;;3.33;2.70;;;;;;;12.00;90.99;101553.09;5009210;28;20518;-66
2023/10/17 13:00:16;;;;;;;2.65;2.45;;;;;;;11.98;90.73;101549.59;5011912;28;20028;-66
2023/10/17 13:02:42;;;;;;;3.22;2.40;;;;;;;11.95;87.48;101549.44;5008062;28;20022;-66
2023/10/17 13:05:09;;;;;;;5.13;2.67;;;;;;;11.89;85.83;101551.00;5002808;28;20026;-66
2023/10/17 13:07:35;;;;;;;2.95;2.22;;;;;;;11.79;87.33;101560.97;5000449;28;20073;-66
2023/10/17 13:10:01;;;;;;;3.58;2.90;;;;;;;11.78;87.89;101557.50;4998115;28;20045;-67
2023/10/17 13:12:26;;;;;;;3.55;2.60;;;;;;;11.77;87.52;101554.00;5008303;28;20355;-66
2023/10/17 13:14:52;;;;;;;3.05;2.65;;;;;;;11.74;88.37;101546.13;4998917;28;20088;-65
2023/10/17 13:17:18;;;;;;;3.67;2.90;;;;;;;11.74;89.23;101551.31;5009701;28;20029;-66
2023/10/17 13:19:45;;;;;;;3.35;3.05;;;;;;;11.71;89.44;101545.97;5009795;28;20034;-66
2023/10/17 13:22:16;;;;;;;4.75;2.85;;;;;;;11.69;90.78;101541.56;5010122;28;20269;-66
2023/10/17 13:24:43;;;;;;;3.38;2.90;;;;;;;11.62;89.54;101538.72;5010414;28;20113;-66
2023/10/17 13:27:08;;;;;;;7.22;3.30;;;;;;;11.56;91.31;101542.78;5009559;28;20022;-66
2023/10/17 13:29:33;;;;;;;4.32;2.80;;;;;;;11.53;92.58;101541.84;5009893;28;20446;-66
2023/10/17 13:32:00;;;;;;;3.58;3.05;;;;;;;11.53;93.15;101544.44;5009699;28;20028;-66
2023/10/17 13:34:27;;;;;;;3.83;2.72;;;;;;;11.51;91.87;101543.47;5009458;28;20391;-66
2023/10/17 13:36:53;;;;;;;3.28;2.97;;;;;;;11.52;92.13;101537.50;5009419;28;20498;-66
2023/10/17 13:39:22;;;;;;;4.72;3.30;;;;;;;11.50;92.71;101541.72;5009798;28;20112;-65
2023/10/17 13:41:50;;;;;;;5.00;3.40;;;;;;;11.50;92.63;101531.34;4995903;28;20057;-66
2023/10/17 13:44:15;;;;;;;3.28;2.97;;;;;;;11.49;90.72;101526.09;5008931;28;20034;-65
2023/10/17 13:46:41;;;;;;;3.47;3.17;;;;;;;11.47;91.50;101519.97;5004374;28;20034;-65
2023/10/17 13:49:08;;;;;;;5.57;2.90;;;;;;;11.44;91.94;101520.72;5011473;28;20025;-66
2023/10/17 13:51:34;;;;;;;5.20;3.17;;;;;;;11.43;91.96;101524.16;5006250;28;20048;-66
2023/10/17 13:54:00;;;;;;;3.63;3.33;;;;;;;11.40;91.73;101527.50;5008848;28;20033;-66
2023/10/17 13:56:27;;;;;;;3.88;3.35;;;;;;;11.39;91.95;101537.81;5007391;28;20037;-66
2023/10/17 13:58:52;;;;;;;5.97;3.47;;;;;;;11.34;92.09;101531.56;5006712;28;20026;-66